Time;durP1;ratioP1;P1;durP2;ratioP2;P2;SDS_P1;SDS_P2;PMS_P1;PMS_P2;Temp;Humidity;BMP_temperature;BMP_pressure;BME280_temperature;BME280_humidity;BME280_pressure;Samples;Min_cycle;Max_cycle;Signal;HPM_P1;HPM_P2
2022/07/01 00:02:13;;;;;;;4.22;3.50;;;19.50;59.60;;;;;;5054390;28;20398;-82
2022/07/01 00:04:38;;;;;;;5.15;3.60;;;19.50;59.80;;;;;;5054098;28;20364;-80
2022/07/01 00:07:04;;;;;;;5.50;3.53;;;19.40;59.90;;;;;;5054326;28;20150;-82
2022/07/01 00:09:30;;;;;;;8.23;3.83;;;19.40;60.00;;;;;;5053931;28;20078;-82
2022/07/01 00:11:56;;;;;;;5.45;3.58;;;19.40;60.00;;;;;;5053411;28;20052;-81
2022/07/01 00:14:25;;;;;;;6.25;3.63;;;19.40;60.10;;;;;;5053406;28;20017;-83
2022/07/01 00:16:50;;;;;;;7.05;3.88;;;19.30;60.30;;;;;;5053371;28;20485;-81
2022/07/01 00:19:17;;;;;;;6.88;3.40;;;19.40;60.50;;;;;;5053563;28;20078;-81
2022/07/01 00:21:43;;;;;;;6.35;3.22;;;19.40;60.70;;;;;;5037047;28;20024;-83
2022/07/01 00:24:09;;;;;;;5.93;3.85;;;19.30;60.70;;;;;;5060945;28;20104;-80
2022/07/01 00:26:35;;;;;;;8.52;3.70;;;19.30;60.80;;;;;;5055297;28;20491;-81
2022/07/01 00:29:01;;;;;;;8.82;3.47;;;19.30;61.20;;;;;;5059788;28;20505;-85
2022/07/01 00:31:27;;;;;;;5.50;3.58;;;19.20;61.40;;;;;;5054174;28;20064;-82
2022/07/01 00:33:53;;;;;;;6.03;3.30;;;19.20;61.50;;;;;;5051724;28;20029;-82
2022/07/01 00:36:18;;;;;;;4.55;3.03;;;19.20;61.80;;;;;;5053492;28;20086;-83
2022/07/01 00:38:44;;;;;;;4.03;3.33;;;19.10;61.90;;;;;;5053262;28;20398;-83
2022/07/01 00:41:10;;;;;;;5.10;3.60;;;19.00;62.00;;;;;;5053555;28;20017;-84
2022/07/01 00:43:38;;;;;;;6.63;3.85;;;19.00;62.30;;;;;;5053133;28;20401;-83
2022/07/01 00:46:04;;;;;;;7.30;3.47;;;19.00;62.50;;;;;;5053045;28;20017;-82
2022/07/01 00:48:32;;;;;;;6.15;4.13;;;18.90;62.60;;;;;;5053151;28;20039;-83
2022/07/01 00:50:59;;;;;;;5.60;3.70;;;18.80;62.70;;;;;;5053119;28;20025;-83
2022/07/01 00:53:25;;;;;;;8.13;3.72;;;18.80;63.10;;;;;;5053273;28;20111;-82
2022/07/01 00:55:51;;;;;;;4.57;3.50;;;18.70;63.00;;;;;;5050451;28;20088;-84
2022/07/01 00:58:17;;;;;;;5.68;3.50;;;18.80;63.20;;;;;;5040856;28;20083;-84
2022/07/01 01:00:43;;;;;;;5.45;3.65;;;18.70;63.30;;;;;;5037060;28;20026;-82
2022/07/01 01:03:11;;;;;;;8.63;3.90;;;18.60;63.30;;;;;;5047988;28;20041;-81
2022/07/01 01:05:37;;;;;;;7.82;3.75;;;18.60;63.60;;;;;;5043354;28;20022;-82
2022/07/01 01:08:04;;;;;;;6.60;3.87;;;18.60;63.70;;;;;;5038236;28;20100;-81
2022/07/01 01:10:31;;;;;;;6.78;4.38;;;18.60;63.70;;;;;;5036760;28;20259;-84
2022/07/01 01:12:57;;;;;;;7.47;3.80;;;18.60;63.70;;;;;;5033906;28;20101;-83
2022/07/01 01:15:23;;;;;;;4.85;3.83;;;18.60;63.80;;;;;;5034940;28;20044;-82
2022/07/01 01:17:49;;;;;;;5.57;3.60;;;18.60;63.90;;;;;;5033219;28;20100;-84
2022/07/01 01:20:19;;;;;;;5.10;3.53;;;18.60;64.00;;;;;;5032871;28;20634;-84
2022/07/01 01:22:47;;;;;;;7.03;3.72;;;18.60;64.10;;;;;;5031391;28;20124;-84
2022/07/01 01:25:12;;;;;;;7.32;4.07;;;18.50;64.10;;;;;;5032057;28;20014;-82
2022/07/01 01:27:38;;;;;;;5.47;3.22;;;18.60;64.00;;;;;;5031191;28;20111;-82
2022/07/01 01:30:09;;;;;;;8.20;3.47;;;18.50;64.00;;;;;;5031953;28;20049;-83
2022/07/01 01:32:35;;;;;;;6.05;3.70;;;18.50;64.20;;;;;;5030996;28;20032;-82
2022/07/01 01:35:02;;;;;;;6.28;3.83;;;18.60;64.20;;;;;;5033971;28;20024;-82
2022/07/01 01:37:28;;;;;;;6.13;3.80;;;18.60;63.90;;;;;;5032446;28;20025;-82
2022/07/01 01:39:54;;;;;;;4.65;3.30;;;18.50;63.70;;;;;;5032286;28;20052;-83
2022/07/01 01:42:21;;;;;;;5.82;3.90;;;18.50;63.70;;;;;;5031984;28;20017;-82
2022/07/01 01:44:47;;;;;;;6.80;3.88;;;18.50;63.70;;;;;;5032139;28;20029;-81
2022/07/01 01:47:12;;;;;;;4.53;3.20;;;18.50;63.60;;;;;;5032083;28;20029;-82
2022/07/01 01:49:38;;;;;;;6.50;3.80;;;18.60;63.50;;;;;;5032241;28;20034;-82
2022/07/01 01:52:04;;;;;;;6.10;3.85;;;18.60;63.40;;;;;;5032268;28;20022;-82
2022/07/01 01:54:30;;;;;;;5.85;3.38;;;18.60;63.30;;;;;;5028777;28;20530;-82
2022/07/01 01:56:56;;;;;;;4.15;3.30;;;18.60;63.20;;;;;;5030488;28;20026;-82
2022/07/01 01:59:22;;;;;;;5.05;3.17;;;18.60;63.10;;;;;;5051660;28;20017;-82
2022/07/01 02:01:47;;;;;;;6.32;3.40;;;18.70;63.20;;;;;;5052278;28;20461;-82
2022/07/01 02:04:13;;;;;;;8.63;3.63;;;18.70;63.00;;;;;;5046451;28;20021;-83
2022/07/01 02:06:42;;;;;;;4.50;3.22;;;18.70;62.70;;;;;;5052017;28;20048;-85
2022/07/01 02:09:11;;;;;;;9.10;3.15;;;18.70;62.90;;;;;;5051904;28;20138;-83
2022/07/01 02:11:37;;;;;;;7.53;3.92;;;18.70;62.30;;;;;;5051836;28;20021;-83
2022/07/01 02:14:02;;;;;;;5.68;3.50;;;18.70;62.40;;;;;;5052022;28;20554;-82
2022/07/01 02:16:28;;;;;;;6.90;3.10;;;18.60;62.70;;;;;;5052055;28;20025;-82
2022/07/01 02:18:54;;;;;;;5.28;3.47;;;18.70;62.50;;;;;;5051613;28;20066;-83
2022/07/01 02:21:20;;;;;;;6.07;3.25;;;18.60;62.30;;;;;;5053798;28;20031;-82
2022/07/01 02:23:45;;;;;;;6.88;3.13;;;18.70;62.40;;;;;;5055628;28;20062;-82
2022/07/01 02:26:12;;;;;;;7.07;3.80;;;18.70;62.40;;;;;;5037857;28;20028;-83
2022/07/01 02:28:38;;;;;;;5.47;3.47;;;18.70;62.20;;;;;;5055725;28;20064;-83
2022/07/01 02:31:04;;;;;;;6.10;3.67;;;18.60;61.90;;;;;;5056483;28;20296;-83
2022/07/01 02:33:31;;;;;;;7.10;3.38;;;18.60;62.00;;;;;;5055933;28;20035;-83
2022/07/01 02:35:57;;;;;;;5.32;3.75;;;18.50;61.70;;;;;;5055090;28;20017;-83
2022/07/01 02:38:23;;;;;;;5.38;3.17;;;18.40;61.80;;;;;;5056366;28;20125;-83
2022/07/01 02:40:48;;;;;;;5.40;3.30;;;18.40;62.30;;;;;;5055760;28;20081;-84
2022/07/01 02:43:15;;;;;;;8.48;3.60;;;18.50;62.10;;;;;;5055484;28;20078;-83
2022/07/01 02:45:42;;;;;;;11.35;3.70;;;18.40;61.50;;;;;;5037782;28;20109;-84
2022/07/01 02:48:08;;;;;;;8.68;3.30;;;18.40;61.80;;;;;;5056716;28;20037;-83
2022/07/01 02:50:33;;;;;;;9.65;3.65;;;18.40;62.10;;;;;;5055829;28;20029;-82
2022/07/01 02:52:59;;;;;;;6.28;3.22;;;18.40;61.80;;;;;;5058333;28;20017;-81
2022/07/01 02:55:25;;;;;;;8.60;2.90;;;18.50;61.40;;;;;;5056731;28;20025;-83
2022/07/01 02:57:51;;;;;;;9.77;3.22;;;18.60;60.50;;;;;;5057036;28;20124;-84
2022/07/01 03:00:19;;;;;;;8.23;2.60;;;18.60;60.00;;;;;;5050009;28;20382;-83
2022/07/01 03:02:45;;;;;;;5.50;2.95;;;18.60;59.50;;;;;;5048795;28;20021;-81
2022/07/01 03:05:11;;;;;;;6.72;2.83;;;18.70;58.90;;;;;;5038118;28;20021;-83
2022/07/01 03:07:38;;;;;;;4.10;2.67;;;18.80;58.20;;;;;;5058986;28;20026;-82
2022/07/01 03:10:05;;;;;;;6.10;2.80;;;18.80;57.40;;;;;;5052707;28;20482;-81
2022/07/01 03:12:34;;;;;;;4.05;2.55;;;18.90;57.10;;;;;;5037719;28;20029;-83
2022/07/01 03:15:03;;;;;;;6.07;2.60;;;19.10;56.70;;;;;;5038918;28;20070;-83
2022/07/01 03:17:31;;;;;;;4.70;2.45;;;19.30;56.40;;;;;;5055666;28;20100;-83
2022/07/01 03:19:57;;;;;;;5.57;2.50;;;19.40;56.10;;;;;;5058702;28;20116;-83
2022/07/01 03:22:26;;;;;;;6.70;2.60;;;19.40;56.10;;;;;;5055492;28;20090;-84
2022/07/01 03:24:53;;;;;;;6.28;2.80;;;19.40;55.90;;;;;;5054848;28;20017;-84
2022/07/01 03:27:19;;;;;;;7.15;2.92;;;19.40;55.70;;;;;;5054515;28;20548;-82
2022/07/01 03:29:46;;;;;;;7.28;2.55;;;19.40;55.50;;;;;;5054944;28;20471;-82
2022/07/01 03:32:12;;;;;;;8.40;4.80;;;19.40;55.60;;;;;;5054980;28;20056;-82
2022/07/01 03:34:46;;;;;;;5.88;2.70;;;19.40;55.50;;;;;;5064118;28;20473;-84
2022/07/01 03:37:13;;;;;;;4.63;3.05;;;19.40;55.40;;;;;;5058629;28;20016;-84
2022/07/01 03:39:39;;;;;;;6.00;2.10;;;19.40;55.50;;;;;;5059958;28;20051;-83
2022/07/01 03:42:07;;;;;;;6.83;2.60;;;19.40;55.10;;;;;;5058572;28;20032;-83
2022/07/01 03:44:33;;;;;;;6.07;2.38;;;19.40;54.80;;;;;;5039862;28;20053;-83
2022/07/01 03:46:59;;;;;;;6.83;2.63;;;19.40;54.80;;;;;;5055761;28;20452;-83
2022/07/01 03:49:25;;;;;;;6.47;4.05;;;19.40;55.10;;;;;;5055405;28;20065;-84
2022/07/01 03:51:52;;;;;;;4.72;2.13;;;19.30;55.20;;;;;;5060202;28;20017;-82
2022/07/01 03:54:30;;;;;;;3.70;2.65;;;19.30;55.20;;;;;;5054773;28;20060;-83
2022/07/01 03:56:57;;;;;;;11.48;8.38;;;19.40;55.30;;;;;;5047864;28;20029;-84
2022/07/01 03:59:22;;;;;;;6.60;4.40;;;19.40;55.30;;;;;;5058257;28;20067;-84
2022/07/01 04:01:48;;;;;;;5.95;2.75;;;19.30;55.10;;;;;;5055718;28;20025;-84
2022/07/01 04:04:14;;;;;;;5.35;2.92;;;19.40;54.90;;;;;;5054522;28;20072;-83
2022/07/01 04:06:40;;;;;;;8.68;5.10;;;19.50;54.10;;;;;;5055968;28;20017;-83
2022/07/01 04:09:06;;;;;;;7.78;4.10;;;19.50;54.10;;;;;;5054186;28;20120;-83
2022/07/01 04:11:32;;;;;;;4.53;2.50;;;19.60;54.00;;;;;;5054085;28;20056;-82
2022/07/01 04:13:58;;;;;;;8.45;2.72;;;19.60;53.00;;;;;;5054124;28;20220;-83
2022/07/01 04:16:25;;;;;;;4.90;2.30;;;19.70;52.70;;;;;;5054476;28;20078;-83
2022/07/01 04:18:51;;;;;;;;;;;19.60;52.80;;;;;;5053068;28;20377;-84
2022/07/01 04:24:02;;;;;;;8.32;3.30;;;19.70;52.20;;;;;;5053199;28;20505;-83
2022/07/01 04:26:27;;;;;;;5.18;2.55;;;19.70;52.00;;;;;;5053285;28;20461;-85
2022/07/01 04:28:57;;;;;;;6.70;2.47;;;19.80;51.40;;;;;;5035757;28;20053;-83
2022/07/01 04:31:23;;;;;;;4.32;2.25;;;19.80;50.50;;;;;;5057845;28;20021;-86
2022/07/01 04:33:49;;;;;;;6.07;2.92;;;19.90;50.30;;;;;;5055479;28;20025;-84
2022/07/01 04:36:15;;;;;;;5.75;2.15;;;19.90;50.20;;;;;;5054579;28;20020;-86
2022/07/01 04:38:41;;;;;;;8.88;4.70;;;19.90;50.30;;;;;;5061042;28;20090;-84
2022/07/01 04:43:51;;;;;;;5.32;2.03;;;19.90;50.10;;;;;;5055296;28;20049;-85
2022/07/01 04:46:17;;;;;;;5.78;3.85;;;19.80;50.10;;;;;;5059220;28;20072;-83
2022/07/01 04:48:42;;;;;;;5.55;2.20;;;19.90;50.80;;;;;;5051545;28;20034;-85
2022/07/01 04:51:08;;;;;;;6.72;4.38;;;19.90;50.40;;;;;;5052438;28;20372;-85
2022/07/01 04:53:34;;;;;;;5.28;2.60;;;19.90;50.50;;;;;;5049123;28;20163;-86
2022/07/01 04:56:00;;;;;;;9.43;2.25;;;19.90;50.30;;;;;;5042414;28;20487;-85
2022/07/01 04:58:26;;;;;;;2.83;1.73;;;20.00;50.30;;;;;;5051496;28;20057;-86
2022/07/01 05:00:52;;;;;;;6.35;1.42;;;20.10;49.40;;;;;;5031496;28;20389;-86
2022/07/01 05:03:18;;;;;;;5.45;1.55;;;20.10;48.00;;;;;;5045405;28;20032;-84
2022/07/01 05:05:44;;;;;;;5.65;2.33;;;20.10;48.40;;;;;;5054118;28;20467;-86
2022/07/01 05:08:10;;;;;;;6.88;2.85;;;20.10;48.20;;;;;;5034665;28;20044;-85
2022/07/01 05:10:36;;;;;;;5.47;2.00;;;20.00;48.20;;;;;;5031797;28;20067;-84
2022/07/01 05:13:04;;;;;;;9.75;2.25;;;20.00;48.10;;;;;;5055077;28;20065;-85
2022/07/01 05:15:29;;;;;;;;;;;20.30;48.30;;;;;;5036428;28;20067;-85
2022/07/01 05:23:24;;;;;;;4.32;1.35;;;22.20;45.10;;;;;;5049472;28;20039;-83
2022/07/01 05:25:49;;;;;;;4.57;1.80;;;23.60;43.40;;;;;;5053145;28;20029;-85
2022/07/01 05:28:15;;;;;;;5.63;1.98;;;24.50;41.60;;;;;;5052362;28;20040;-84
2022/07/01 05:30:41;;;;;;;5.10;2.45;;;25.20;40.30;;;;;;5052556;28;20016;-84
2022/07/01 05:33:07;;;;;;;5.95;1.23;;;25.60;39.40;;;;;;5035158;28;20036;-85
2022/07/01 05:35:32;;;;;;;4.72;1.40;;;26.00;39.10;;;;;;5034685;28;20089;-84
2022/07/01 05:37:58;;;;;;;4.22;1.85;;;26.70;37.90;;;;;;5052575;28;20457;-84
2022/07/01 05:40:25;;;;;;;6.03;1.50;;;27.40;37.50;;;;;;5054353;28;20049;-83
2022/07/01 05:42:52;;;;;;;3.72;1.20;;;28.10;36.10;;;;;;5034323;28;20132;-85
2022/07/01 05:45:18;;;;;;;8.70;1.63;;;28.60;34.80;;;;;;5037263;28;20032;-84
2022/07/01 05:47:44;;;;;;;9.02;1.63;;;28.90;34.70;;;;;;5054328;28;20494;-85
2022/07/01 05:50:10;;;;;;;6.65;1.83;;;29.20;34.30;;;;;;5037482;28;20064;-86
2022/07/01 05:52:36;;;;;;;6.72;2.95;;;28.80;34.40;;;;;;5055204;28;20050;-83
2022/07/01 05:55:02;;;;;;;5.18;1.85;;;28.20;34.80;;;;;;5047402;28;20081;-89
2022/07/01 05:57:28;;;;;;;8.32;2.00;;;27.90;35.60;;;;;;5041884;28;20045;-83
2022/07/01 05:59:54;;;;;;;4.13;1.83;;;27.80;35.10;;;;;;5050964;28;20029;-85
2022/07/01 06:02:20;;;;;;;17.83;3.88;;;27.80;35.00;;;;;;5038324;28;20036;-86
2022/07/01 06:04:46;;;;;;;4.50;2.47;;;28.00;34.70;;;;;;5029251;28;20017;-83
2022/07/01 06:07:11;;;;;;;6.25;1.60;;;28.10;34.70;;;;;;5019397;28;20031;-84
2022/07/01 06:09:38;;;;;;;4.47;1.92;;;28.20;34.10;;;;;;5046240;28;20033;-85
2022/07/01 06:12:05;;;;;;;6.53;2.03;;;29.10;33.30;;;;;;5049229;28;20017;-86
2022/07/01 06:14:31;;;;;;;;;;;28.90;32.40;;;;;;5052826;28;20033;-86
2022/07/01 06:16:57;;;;;;;4.20;2.00;;;28.70;33.30;;;;;;5056254;28;19950;-85
2022/07/01 06:19:22;;;;;;;7.93;3.47;;;29.30;32.60;;;;;;5055399;28;20021;-85
2022/07/01 06:21:48;;;;;;;14.15;5.50;;;29.40;32.90;;;;;;5058369;28;20497;-84
2022/07/01 06:24:14;;;;;;;13.93;2.17;;;30.30;32.00;;;;;;5045598;28;20020;-84
2022/07/01 06:26:40;;;;;;;6.95;2.28;;;31.10;31.40;;;;;;5050493;28;20025;-87
2022/07/01 06:29:06;;;;;;;3.60;1.92;;;31.20;31.20;;;;;;5040368;28;20428;-88
2022/07/01 06:31:35;;;;;;;6.72;2.38;;;30.90;30.70;;;;;;5046657;28;20032;-86
2022/07/01 06:34:01;;;;;;;8.13;1.90;;;30.50;31.40;;;;;;5056423;28;20055;-84
2022/07/01 06:36:27;;;;;;;5.80;2.03;;;30.50;31.20;;;;;;5056553;28;20021;-86
2022/07/01 06:38:53;;;;;;;3.85;1.90;;;30.40;31.50;;;;;;5056747;28;20017;-88
2022/07/01 06:41:28;;;;;;;4.82;1.35;;;30.30;31.30;;;;;;5038679;28;20029;-86
2022/07/01 06:43:58;;;;;;;11.43;5.15;;;30.70;31.40;;;;;;5057579;28;20025;-85
2022/07/01 06:46:25;;;;;;;4.65;1.60;;;31.20;30.90;;;;;;5062376;28;20024;-85
2022/07/01 06:48:51;;;;;;;10.23;2.70;;;31.30;30.70;;;;;;5064795;28;20043;-83
2022/07/01 06:51:17;;;;;;;6.73;2.47;;;31.70;29.50;;;;;;5060523;28;20104;-85
2022/07/01 06:53:46;;;;;;;5.85;2.15;;;31.50;29.40;;;;;;5037257;28;20082;-86
2022/07/01 06:56:14;;;;;;;6.95;1.83;;;31.40;29.70;;;;;;5056163;28;20017;-87
2022/07/01 06:58:42;;;;;;;8.05;2.00;;;33.00;29.30;;;;;;5059447;28;20044;-86
2022/07/01 07:01:09;;;;;;;7.45;1.48;;;34.20;28.50;;;;;;5041034;28;20029;-85
2022/07/01 07:03:35;;;;;;;6.72;1.85;;;35.40;27.50;;;;;;5057200;28;20040;-86
2022/07/01 07:06:02;;;;;;;8.50;1.65;;;36.50;27.30;;;;;;5055775;28;20017;-84
2022/07/01 07:08:32;;;;;;;5.47;1.40;;;36.40;26.60;;;;;;5060033;28;20033;-86
2022/07/01 07:10:58;;;;;;;6.40;1.55;;;35.70;26.70;;;;;;5060013;28;20021;-86
2022/07/01 07:13:24;;;;;;;;;;;35.50;27.10;;;;;;5044277;28;20024;-87
2022/07/01 07:15:50;;;;;;;11.80;5.40;;;36.10;27.10;;;;;;5062509;28;19951;-86
2022/07/01 07:18:16;;;;;;;4.07;1.95;;;36.50;26.40;;;;;;5061367;28;20037;-87
2022/07/01 07:20:43;;;;;;;8.55;2.70;;;35.40;26.40;;;;;;5041289;28;20017;-86
2022/07/01 07:23:09;;;;;;;;;;;34.80;27.00;;;;;;5058790;28;20105;-85
2022/07/01 07:25:35;;;;;;;9.05;3.08;;;34.30;26.80;;;;;;5040348;28;19995;-84
2022/07/01 07:28:00;;;;;;;3.27;1.20;;;33.70;27.00;;;;;;5041693;28;20097;-84
2022/07/01 07:30:26;;;;;;;5.27;1.63;;;34.10;26.90;;;;;;5058922;28;20021;-85
2022/07/01 07:32:52;;;;;;;2.95;1.25;;;35.70;26.60;;;;;;5058833;28;20039;-84
2022/07/01 07:35:18;;;;;;;9.13;2.87;;;37.00;26.00;;;;;;5063604;28;20099;-86
2022/07/01 07:37:45;;;;;;;5.97;1.55;;;37.50;25.00;;;;;;5050645;28;20276;-85
2022/07/01 07:40:14;;;;;;;5.85;2.30;;;37.40;24.60;;;;;;5043444;28;20028;-84
2022/07/01 07:42:40;;;;;;;8.05;2.13;;;36.00;25.00;;;;;;5040932;28;20021;-85
2022/07/01 07:45:07;;;;;;;3.17;1.40;;;35.20;25.30;;;;;;5058158;28;20020;-85
2022/07/01 07:47:34;;;;;;;3.20;1.25;;;34.80;25.40;;;;;;5058045;28;20028;-86
2022/07/01 07:49:59;;;;;;;;;;;34.00;24.80;;;;;;5038289;28;20427;-85
2022/07/01 07:52:25;;;;;;;8.57;2.10;;;33.60;25.70;;;;;;5040030;28;19915;-85
2022/07/01 07:54:51;;;;;;;5.47;1.40;;;33.30;25.90;;;;;;5057953;28;20441;-86
2022/07/01 07:57:17;;;;;;;1.77;1.17;;;33.90;25.70;;;;;;5057275;28;20317;-85
2022/07/01 07:59:43;;;;;;;6.53;1.42;;;34.90;25.40;;;;;;5058343;28;20021;-86
2022/07/01 08:02:08;;;;;;;5.85;1.50;;;34.40;25.80;;;;;;5060268;28;20035;-85
2022/07/01 08:04:34;;;;;;;3.13;1.57;;;34.70;25.60;;;;;;5058165;28;20053;-85
2022/07/01 08:07:00;;;;;;;2.77;1.00;;;35.90;25.30;;;;;;5057427;28;20029;-85
2022/07/01 08:09:26;;;;;;;4.23;3.03;;;36.80;24.50;;;;;;5059488;28;20304;-85
2022/07/01 08:11:53;;;;;;;9.70;2.30;;;36.30;24.80;;;;;;5061195;28;20386;-85
2022/07/01 08:14:20;;;;;;;6.07;2.50;;;35.50;25.00;;;;;;5060968;28;20112;-84
2022/07/01 08:16:46;;;;;;;7.03;1.33;;;36.00;25.20;;;;;;5058475;28;20111;-86
2022/07/01 08:19:11;;;;;;;7.93;1.60;;;36.90;24.90;;;;;;5056566;28;20482;-87
2022/07/01 08:21:37;;;;;;;4.80;1.20;;;37.60;24.50;;;;;;5056604;28;20257;-85
2022/07/01 08:24:03;;;;;;;3.25;1.40;;;38.10;24.40;;;;;;5039109;28;20034;-84
2022/07/01 08:26:30;;;;;;;3.83;1.73;;;39.00;24.10;;;;;;5056485;28;20025;-86
2022/07/01 08:28:56;;;;;;;2.65;1.58;;;39.70;23.80;;;;;;5038232;28;20064;-85
2022/07/01 08:31:22;;;;;;;5.63;2.88;;;38.70;23.70;;;;;;5039061;28;20032;-86
2022/07/01 08:33:47;;;;;;;5.30;1.33;;;38.40;24.10;;;;;;5056831;28;20394;-86
2022/07/01 08:36:13;;;;;;;10.70;4.40;;;38.90;24.10;;;;;;5057793;28;20085;-84
2022/07/01 08:38:40;;;;;;;6.75;2.13;;;39.40;23.60;;;;;;5038320;28;20471;-86
2022/07/01 08:41:06;;;;;;;3.28;1.73;;;38.30;23.70;;;;;;5055474;28;20029;-85
2022/07/01 08:43:34;;;;;;;4.43;1.30;;;36.60;23.70;;;;;;5054745;28;20032;-86
2022/07/01 08:46:01;;;;;;;3.67;1.50;;;35.70;24.30;;;;;;5056671;28;20029;-85
2022/07/01 08:48:28;;;;;;;3.50;1.98;;;35.50;24.50;;;;;;5056409;28;20375;-86
2022/07/01 08:50:54;;;;;;;8.93;2.72;;;36.20;24.70;;;;;;5056268;28;20025;-85
2022/07/01 08:53:20;;;;;;;6.35;1.90;;;35.60;24.90;;;;;;5056020;28;20048;-85
2022/07/01 08:58:30;;;;;;;4.60;1.98;;;35.50;25.00;;;;;;5056594;28;20059;-89
2022/07/01 09:01:22;;;;;;;3.63;1.90;;;35.50;25.30;;;;;;5055752;28;20036;-84
2022/07/01 09:03:54;;;;;;;8.23;1.90;;;37.10;25.10;;;;;;5038313;28;20037;-85
2022/07/01 09:06:28;;;;;;;4.53;1.77;;;38.10;24.40;;;;;;5039488;28;20051;-88
2022/07/01 09:08:54;;;;;;;4.55;1.45;;;38.20;24.30;;;;;;5021011;28;20064;-86
2022/07/01 09:11:25;;;;;;;5.32;1.63;;;38.20;24.20;;;;;;5055908;28;20493;-87
2022/07/01 09:14:11;;;;;;;4.70;1.60;;;37.60;23.70;;;;;;5055995;28;20021;-86
2022/07/01 09:16:49;;;;;;;4.43;1.15;;;37.80;24.00;;;;;;5060380;28;20048;-87
2022/07/01 09:19:17;;;;;;;3.90;1.13;;;37.70;24.00;;;;;;5061649;28;20048;-86
2022/07/01 09:21:46;;;;;;;3.05;1.35;;;37.70;24.30;;;;;;5057875;28;20081;-86
2022/07/01 09:24:28;;;;;;;6.47;1.52;;;37.40;24.20;;;;;;5056885;28;20021;-86
2022/07/01 09:26:56;;;;;;;6.18;1.63;;;37.70;24.00;;;;;;5056430;28;20036;-88
2022/07/01 09:29:32;;;;;;;3.45;1.67;;;37.80;24.10;;;;;;5055323;28;20167;-86
2022/07/01 09:31:59;;;;;;;3.58;1.45;;;37.10;24.30;;;;;;5057432;28;20017;-87
2022/07/01 09:34:25;;;;;;;6.65;2.85;;;36.90;24.50;;;;;;5059370;28;20068;-88
2022/07/01 09:36:56;;;;;;;4.68;2.08;;;37.00;24.70;;;;;;5048712;28;20028;-85
2022/07/01 09:39:22;;;;;;;2.95;1.73;;;36.80;24.10;;;;;;5059424;28;20049;-86
2022/07/01 09:41:48;;;;;;;11.95;2.55;;;37.00;23.80;;;;;;5038270;28;20040;-88
2022/07/01 09:44:14;;;;;;;8.02;2.08;;;37.20;23.60;;;;;;5038844;28;20017;-86
2022/07/01 09:46:52;;;;;;;7.97;3.33;;;36.30;24.30;;;;;;5051516;28;20025;-86
2022/07/01 09:49:18;;;;;;;4.28;1.50;;;36.60;24.20;;;;;;5021999;28;20029;-84
2022/07/01 09:51:44;;;;;;;3.70;1.35;;;37.30;23.90;;;;;;5057895;28;20029;-86
2022/07/01 09:54:12;;;;;;;3.70;1.80;;;37.10;23.30;;;;;;5058939;28;20040;-86
2022/07/01 09:56:38;;;;;;;2.47;1.50;;;36.60;23.30;;;;;;5059884;28;20028;-86
2022/07/01 09:59:04;;;;;;;4.15;1.58;;;36.80;23.60;;;;;;5040651;28;20053;-87
2022/07/01 10:01:32;;;;;;;3.42;1.20;;;37.40;23.70;;;;;;5042717;28;20097;-85
2022/07/01 10:03:59;;;;;;;6.03;1.33;;;37.70;23.40;;;;;;5038901;28;20036;-86
2022/07/01 10:07:03;;;;;;;4.40;1.40;;;37.40;23.60;;;;;;5055325;28;20021;-86
2022/07/01 10:09:54;;;;;;;6.47;1.30;;;37.20;24.30;;;;;;5027494;28;20053;-87
2022/07/01 10:12:26;;;;;;;4.05;1.50;;;36.00;24.20;;;;;;5040290;28;20056;-85
2022/07/01 10:14:53;;;;;;;4.85;1.40;;;35.60;24.60;;;;;;5056346;28;20032;-84
2022/07/01 10:17:35;;;;;;;6.20;1.50;;;36.10;24.20;;;;;;5055559;28;20036;-86
2022/07/01 10:20:16;;;;;;;2.97;1.60;;;36.40;24.20;;;;;;5054622;28;20029;-87
2022/07/01 10:22:44;;;;;;;3.30;1.42;;;36.50;23.90;;;;;;5055171;28;20487;-84
2022/07/01 10:25:32;;;;;;;2.28;1.30;;;36.30;23.80;;;;;;5038687;28;20029;-86
2022/07/01 10:28:26;;;;;;;5.03;2.30;;;35.50;24.10;;;;;;5060100;28;20029;-85
2022/07/01 10:30:53;;;;;;;5.00;2.17;;;34.30;24.80;;;;;;5021851;28;20022;-87
2022/07/01 10:33:47;;;;;;;2.40;1.33;;;32.80;24.90;;;;;;5055370;28;20036;-84
2022/07/01 10:36:29;;;;;;;3.80;1.52;;;31.00;25.00;;;;;;5027517;28;20021;-88
2022/07/01 10:39:03;;;;;;;7.22;1.88;;;29.10;26.10;;;;;;5055515;28;20079;-87
2022/07/01 10:41:31;;;;;;;5.93;1.73;;;27.80;27.20;;;;;;5037581;28;20063;-85
2022/07/01 10:43:58;;;;;;;6.10;1.90;;;26.80;27.70;;;;;;5060589;28;20462;-84
2022/07/01 10:46:41;;;;;;;7.47;1.65;;;25.90;28.70;;;;;;5058812;28;20111;-86
2022/07/01 10:49:08;;;;;;;6.07;2.22;;;25.10;29.40;;;;;;5058743;28;20044;-87
2022/07/01 10:51:45;;;;;;;;;;;24.50;30.20;;;;;;5059858;28;20082;-84
2022/07/01 10:54:11;;;;;;;8.13;3.97;;;24.10;30.40;;;;;;5058256;28;19905;-86
2022/07/01 10:56:41;;;;;;;3.03;1.67;;;23.70;31.50;;;;;;5059110;28;20086;-87
2022/07/01 10:59:07;;;;;;;5.20;2.30;;;23.40;32.00;;;;;;5058836;28;20037;-86
2022/07/01 11:01:33;;;;;;;8.93;2.75;;;23.30;32.60;;;;;;5040827;28;20114;-87
2022/07/01 11:03:59;;;;;;;6.80;2.28;;;23.30;32.60;;;;;;5057163;28;20398;-87
2022/07/01 11:06:25;;;;;;;5.30;2.00;;;23.20;32.40;;;;;;5057935;28;20445;-88
2022/07/01 11:08:51;;;;;;;7.55;2.08;;;23.20;32.70;;;;;;5058675;28;20037;-88
2022/07/01 11:11:19;;;;;;;3.47;1.70;;;23.20;32.50;;;;;;5040876;28;20116;-87
2022/07/01 11:13:46;;;;;;;2.80;2.13;;;23.10;32.30;;;;;;5060144;28;20021;-87
2022/07/01 11:16:12;;;;;;;4.25;1.70;;;22.90;31.90;;;;;;5041848;28;20029;-86
2022/07/01 11:18:40;;;;;;;9.82;1.90;;;22.60;32.80;;;;;;5057935;28;20044;-85
2022/07/01 11:21:08;;;;;;;9.15;2.25;;;22.60;33.00;;;;;;5063117;28;20056;-86
2022/07/01 11:23:34;;;;;;;4.38;1.80;;;22.70;32.40;;;;;;5062823;28;20032;-86
2022/07/01 11:26:00;;;;;;;5.30;2.23;;;22.70;33.60;;;;;;5059597;28;20009;-87
2022/07/01 11:28:26;;;;;;;2.95;1.48;;;22.70;33.80;;;;;;5058668;28;20043;-86
2022/07/01 11:31:02;;;;;;;7.95;2.65;;;22.60;33.00;;;;;;5058061;28;20016;-85
2022/07/01 11:33:28;;;;;;;2.90;1.48;;;22.50;33.60;;;;;;5040660;28;20243;-86
2022/07/01 11:41:25;;;;;;;4.32;2.08;;;22.30;32.80;;;;;;5046189;28;20509;-87
2022/07/01 11:43:51;;;;;;;4.70;2.30;;;22.30;33.00;;;;;;5037113;28;20032;-86
2022/07/01 11:46:17;;;;;;;5.10;1.87;;;22.30;33.50;;;;;;5041049;28;20025;-88
2022/07/01 11:48:52;;;;;;;4.20;2.53;;;22.20;33.40;;;;;;5040755;28;20063;-86
2022/07/01 11:51:20;;;;;;;3.03;1.90;;;22.20;33.00;;;;;;5058409;28;20024;-86
2022/07/01 11:53:48;;;;;;;5.32;2.15;;;22.20;32.80;;;;;;5042147;28;20074;-85
2022/07/01 11:56:15;;;;;;;3.38;1.60;;;22.20;33.00;;;;;;5044688;28;20047;-85
2022/07/01 11:58:46;;;;;;;7.75;2.30;;;22.20;32.80;;;;;;5060365;28;20061;-83
2022/07/01 12:01:20;;;;;;;3.20;2.28;;;22.20;33.50;;;;;;5060749;28;20040;-85
2022/07/01 12:03:46;;;;;;;6.85;2.10;;;22.30;34.00;;;;;;5047222;28;20022;-85
2022/07/01 12:06:12;;;;;;;6.03;2.50;;;22.30;34.40;;;;;;5053548;28;20031;-87
2022/07/01 12:08:39;;;;;;;7.50;2.25;;;22.30;34.40;;;;;;5038958;28;20421;-86
2022/07/01 12:11:05;;;;;;;4.22;2.00;;;22.30;34.50;;;;;;5044120;28;20434;-85
2022/07/01 12:13:37;;;;;;;4.95;1.77;;;22.30;34.60;;;;;;5052758;28;20034;-86
2022/07/01 12:16:10;;;;;;;3.10;1.85;;;22.30;33.90;;;;;;5022714;28;20022;-84
2022/07/01 12:18:36;;;;;;;7.63;2.40;;;22.30;34.50;;;;;;5014047;28;20029;-84
2022/07/01 12:21:03;;;;;;;3.38;1.77;;;22.30;34.30;;;;;;5050070;28;20089;-85
2022/07/01 12:23:28;;;;;;;8.50;2.25;;;22.30;33.70;;;;;;5049394;28;20033;-86
2022/07/01 12:25:55;;;;;;;6.00;2.10;;;22.30;33.30;;;;;;5034374;28;20017;-86
2022/07/01 12:28:37;;;;;;;5.03;2.15;;;22.30;34.10;;;;;;5068779;28;20080;-86
2022/07/01 12:31:06;;;;;;;9.00;2.50;;;22.30;34.10;;;;;;5016172;28;20075;-87
2022/07/01 12:33:34;;;;;;;5.38;2.28;;;22.40;34.20;;;;;;5057655;28;20036;-85
2022/07/01 12:36:01;;;;;;;;;;;22.40;34.20;;;;;;5040577;28;20021;-86
2022/07/01 12:38:26;;;;;;;4.50;2.30;;;22.40;33.70;;;;;;5046095;28;19963;-86
2022/07/01 12:40:52;;;;;;;7.30;2.53;;;22.30;34.30;;;;;;5024156;28;20021;-88
2022/07/01 12:43:30;;;;;;;9.18;2.22;;;22.30;34.10;;;;;;5035980;28;20041;-85
2022/07/01 12:45:57;;;;;;;7.68;2.55;;;22.30;33.30;;;;;;5040301;28;20029;-87
2022/07/01 12:48:23;;;;;;;;;;;22.40;33.50;;;;;;5059126;28;20037;-84
2022/07/01 12:50:53;;;;;;;6.53;2.08;;;22.40;33.20;;;;;;5059638;28;19915;-84
2022/07/01 12:53:21;;;;;;;6.15;1.85;;;22.30;32.70;;;;;;5060200;28;20115;-87
2022/07/01 12:55:50;;;;;;;10.07;2.65;;;22.30;32.80;;;;;;5024607;28;20030;-88
2022/07/01 12:58:18;;;;;;;6.07;2.53;;;22.30;32.60;;;;;;5035610;28;20136;-85
2022/07/01 13:00:50;;;;;;;6.13;2.47;;;22.30;32.40;;;;;;5037568;28;20112;-85
2022/07/01 13:03:20;;;;;;;7.57;2.50;;;22.30;32.40;;;;;;5036954;28;20029;-87
2022/07/01 13:05:45;;;;;;;6.15;2.45;;;22.20;33.30;;;;;;5036808;28;20021;-86
2022/07/01 13:08:11;;;;;;;5.68;2.70;;;22.30;32.90;;;;;;5036425;28;20034;-85
2022/07/01 13:10:38;;;;;;;5.35;2.25;;;22.30;33.20;;;;;;5036789;28;20104;-87